Time;durP1;ratioP1;P1;durP2;ratioP2;P2;SDS_P1;SDS_P2;PMS_P1;PMS_P2;Temp;Humidity;BMP_temperature;BMP_pressure;BME280_temperature;BME280_humidity;BME280_pressure;Samples;Min_cycle;Max_cycle;Signal;HPM_P1;HPM_P2
2021/07/28 05:14:31;;;;;;;10.73;4.80;;;19.10;99.90;;;;;;4827526;29;20474;-70
2021/07/28 05:17:23;;;;;;;6.50;5.37;;;19.10;99.90;;;;;;5125305;24;20545;-71
2021/07/28 05:19:49;;;;;;;6.10;4.90;;;19.10;99.90;;;;;;4822188;29;20234;-71
2021/07/28 05:22:15;;;;;;;6.60;5.50;;;19.10;99.90;;;;;;4856605;29;20492;-70
2021/07/28 05:24:40;;;;;;;6.47;5.27;;;19.10;99.90;;;;;;4823222;29;20762;-70
2021/07/28 05:27:06;;;;;;;6.90;6.20;;;19.10;99.90;;;;;;4821342;29;20227;-71
2021/07/28 05:29:32;;;;;;;6.40;5.80;;;19.10;99.90;;;;;;4832072;29;20222;-71
2021/07/28 05:31:59;;;;;;;7.00;4.93;;;19.10;99.90;;;;;;4802744;29;20315;-71
2021/07/28 05:34:24;;;;;;;7.37;5.40;;;19.10;99.90;;;;;;4804244;29;20560;-70
2021/07/28 05:50:18;;;;;;;8.30;5.30;;;19.10;99.90;;;;;;4857664;29;20553;-71
2021/07/28 05:52:44;;;;;;;7.70;5.43;;;19.10;99.90;;;;;;4836521;29;20541;-71
2021/07/28 05:55:10;;;;;;;6.77;6.17;;;19.10;99.90;;;;;;4837466;29;20263;-71
2021/07/28 05:57:36;;;;;;;6.00;5.00;;;19.10;99.90;;;;;;4808914;29;20250;-71
2021/07/28 06:00:06;;;;;;;6.60;5.87;;;19.20;99.90;;;;;;4802315;29;20476;-72
2021/07/28 06:02:32;;;;;;;6.90;5.90;;;19.20;99.90;;;;;;4818928;29;20479;-71
2021/07/28 06:04:58;;;;;;;5.87;5.17;;;19.10;99.90;;;;;;4796548;29;20468;-72
2021/07/28 06:07:24;;;;;;;6.10;5.43;;;19.20;99.90;;;;;;4817920;29;20259;-70
2021/07/28 06:09:49;;;;;;;6.43;5.43;;;19.20;99.90;;;;;;4799994;29;20246;-70
2021/07/28 06:12:16;;;;;;;6.97;5.30;;;19.20;99.90;;;;;;4814269;29;20223;-72
2021/07/28 06:14:43;;;;;;;6.83;5.43;;;19.20;99.90;;;;;;4832877;29;20231;-72
2021/07/28 12:47:52;;;;;;;3.10;2.90;;;24.00;99.90;;;;;;5969759;23;20428;-71
2021/07/28 12:50:17;;;;;;;2.73;2.53;;;24.00;99.90;;;;;;4844841;29;20467;-70
2021/07/28 12:52:43;;;;;;;3.13;2.80;;;24.10;99.90;;;;;;4820090;29;20471;-71
2021/07/28 12:55:10;;;;;;;3.30;3.03;;;24.20;99.90;;;;;;4816889;29;20227;-71
2021/07/28 19:54:48;;;;;;;5.27;2.80;;;22.00;99.90;;;;;;4842442;29;20642;-71
2021/07/28 19:57:14;;;;;;;3.80;3.50;;;22.00;99.90;;;;;;4951793;24;21182;-70
2021/07/28 19:59:40;;;;;;;5.20;3.70;;;21.90;99.90;;;;;;4834661;29;20282;-72
2021/07/28 20:02:05;;;;;;;3.17;2.87;;;21.90;99.90;;;;;;4842623;29;20373;-71
2021/07/28 20:04:32;;;;;;;4.47;2.77;;;21.90;99.90;;;;;;4830914;29;20707;-71
2021/07/28 20:06:58;;;;;;;5.47;3.20;;;21.80;99.90;;;;;;4922145;24;20239;-70
2021/07/28 20:09:24;;;;;;;3.77;2.80;;;21.80;99.90;;;;;;4803276;29;20471;-72
2021/07/28 20:11:49;;;;;;;3.20;2.90;;;21.80;99.90;;;;;;4803160;29;20692;-71
2021/07/28 21:29:23;;;;;;;2.97;2.67;;;21.10;99.90;;;;;;4843445;23;20488;-72
2021/07/28 21:31:49;;;;;;;3.77;2.47;;;21.10;99.90;;;;;;4829326;29;20885;-69
2021/07/28 21:34:14;;;;;;;4.57;2.77;;;21.10;99.90;;;;;;4853143;29;20571;-71
2021/07/28 21:36:42;;;;;;;3.07;2.13;;;21.00;99.90;;;;;;4816243;29;20260;-69
2021/07/28 21:39:09;;;;;;;3.20;2.70;;;21.00;99.90;;;;;;4807498;29;20235;-69
2021/07/28 21:41:36;;;;;;;2.40;2.20;;;20.90;99.90;;;;;;4806711;29;20574;-69
2021/07/28 21:44:07;;;;;;;2.50;2.30;;;20.90;99.90;;;;;;4808994;29;20468;-69
2021/07/28 21:46:34;;;;;;;2.67;2.47;;;20.80;99.90;;;;;;4817053;29;20485;-69
2021/07/28 21:49:34;;;;;;;3.47;3.03;;;20.70;99.90;;;;;;4800874;29;20999;-68
2021/07/28 21:52:29;;;;;;;2.20;2.10;;;20.70;99.90;;;;;;4799206;29;20488;-69
2021/07/28 21:54:57;;;;;;;3.33;2.80;;;20.70;99.90;;;;;;4814334;29;20477;-69
2021/07/28 21:57:23;;;;;;;2.80;2.47;;;20.80;99.90;;;;;;4802013;29;20477;-69
2021/07/28 21:59:50;;;;;;;2.90;2.70;;;20.70;99.90;;;;;;4804640;29;20459;-69
2021/07/28 22:02:24;;;;;;;3.10;2.57;;;20.70;99.90;;;;;;4813357;29;21076;-69
2021/07/28 22:04:51;;;;;;;2.53;2.33;;;20.70;99.90;;;;;;4829251;29;20484;-69
2021/07/28 22:07:17;;;;;;;2.50;2.30;;;20.70;99.90;;;;;;4804995;29;20471;-69
2021/07/28 22:09:47;;;;;;;2.63;2.43;;;20.60;99.90;;;;;;4810650;29;20489;-68
2021/07/28 22:12:14;;;;;;;2.63;2.43;;;20.60;99.90;;;;;;4815944;29;20483;-71
2021/07/28 22:14:40;;;;;;;3.40;3.10;;;20.60;99.90;;;;;;4797559;29;20520;-71
2021/07/28 22:17:06;;;;;;;4.97;3.13;;;20.60;99.90;;;;;;4830559;29;20582;-70
2021/07/28 22:19:32;;;;;;;3.07;2.87;;;20.60;99.90;;;;;;4820217;29;21250;-68
2021/07/28 22:21:58;;;;;;;3.53;2.40;;;20.60;99.90;;;;;;4819016;29;20219;-69
2021/07/28 22:24:25;;;;;;;3.77;2.40;;;20.50;99.90;;;;;;4808037;29;20897;-69
2021/07/28 22:26:51;;;;;;;2.63;2.40;;;20.50;99.90;;;;;;4802357;29;20231;-69
2021/07/28 22:29:16;;;;;;;3.80;2.90;;;20.50;99.90;;;;;;4815680;29;20541;-70
2021/07/28 22:31:42;;;;;;;3.03;2.80;;;20.50;99.90;;;;;;4799359;29;20271;-69
2021/07/28 22:34:08;;;;;;;6.53;2.27;;;20.60;99.90;;;;;;4803542;29;20227;-69
2021/07/28 22:36:33;;;;;;;2.60;2.40;;;20.50;99.90;;;;;;4809148;29;20239;-70
2021/07/28 22:38:59;;;;;;;2.47;2.23;;;20.50;99.90;;;;;;4818853;29;20235;-68
2021/07/28 22:41:25;;;;;;;2.43;2.23;;;20.50;99.90;;;;;;4802871;29;20687;-69
2021/07/28 22:43:51;;;;;;;2.60;2.40;;;20.50;99.90;;;;;;4806301;29;20224;-69
2021/07/28 22:46:18;;;;;;;3.70;2.77;;;20.50;99.90;;;;;;4803965;29;20235;-69
2021/07/28 22:53:57;;;;;;;2.80;2.00;;;20.30;99.90;;;;;;4809479;29;20476;-68
2021/07/28 22:56:31;;;;;;;3.77;2.60;;;20.10;99.90;;;;;;4809805;29;20533;-70
2021/07/28 23:09:14;;;;;;;2.70;2.33;;;19.90;99.90;;;;;;4817040;29;20469;-69
2021/07/28 23:11:41;;;;;;;2.83;2.40;;;19.90;99.90;;;;;;4813824;29;20238;-69
2021/07/28 23:14:06;;;;;;;3.47;2.67;;;19.90;99.90;;;;;;4811909;29;20471;-68
2021/07/28 23:16:32;;;;;;;2.83;2.40;;;19.90;99.90;;;;;;4814644;29;20522;-69
2021/07/28 23:18:58;;;;;;;4.43;2.67;;;19.90;99.90;;;;;;4796405;29;20222;-69
2021/07/28 23:21:24;;;;;;;3.80;2.80;;;19.80;99.90;;;;;;4809326;29;20258;-71
2021/07/28 23:23:50;;;;;;;3.30;2.93;;;19.80;99.90;;;;;;4816925;29;20227;-69
2021/07/28 23:26:16;;;;;;;2.93;2.73;;;19.80;99.90;;;;;;4818585;29;20735;-69
2021/07/28 23:28:42;;;;;;;3.73;3.00;;;19.80;99.90;;;;;;4821060;29;20996;-69
2021/07/28 23:31:09;;;;;;;3.17;2.63;;;19.70;99.90;;;;;;4802996;29;20985;-70
2021/07/28 23:33:38;;;;;;;3.03;2.83;;;19.60;99.90;;;;;;4797631;29;20473;-69
2021/07/28 23:36:04;;;;;;;4.30;3.00;;;19.60;99.90;;;;;;4812943;29;20548;-69
2021/07/28 23:38:30;;;;;;;3.47;2.60;;;19.50;99.90;;;;;;4815707;29;20514;-69
2021/07/28 23:40:56;;;;;;;5.60;3.07;;;19.50;99.90;;;;;;4811043;29;20460;-69
2021/07/28 23:43:22;;;;;;;2.60;2.40;;;19.40;99.90;;;;;;4805684;29;20227;-68
2021/07/28 23:45:49;;;;;;;3.47;3.10;;;19.40;99.90;;;;;;4814698;29;20215;-69
2021/07/28 23:48:37;;;;;;;5.10;2.63;;;19.30;99.90;;;;;;4796292;29;20821;-69
2021/07/28 23:51:09;;;;;;;2.93;2.63;;;19.30;99.90;;;;;;4799683;29;20469;-69
2021/07/28 23:53:35;;;;;;;3.53;2.60;;;19.20;99.90;;;;;;4814446;29;20488;-69
2021/07/28 23:56:00;;;;;;;4.23;2.60;;;19.20;99.90;;;;;;4815777;29;20600;-68
2021/07/28 23:58:26;;;;;;;4.07;2.67;;;19.10;99.90;;;;;;4799605;29;20555;-69
